createdAt,value
2022-08-05T00:01:36.337Z,92660.56
2022-08-05T00:04:18.443Z,92658.81
2022-08-05T00:06:51.679Z,92660.09
2022-08-05T00:09:20.755Z,92647.41
2022-08-05T00:11:56.021Z,92652.03
2022-08-05T00:14:31.466Z,92645.28
2022-08-05T00:17:01.942Z,92651.00
2022-08-05T00:19:33.605Z,92646.88
2022-08-05T00:22:12.975Z,92639.91
2022-08-05T00:24:42.870Z,92640.84
2022-08-05T00:27:14.165Z,92629.34
2022-08-05T00:29:45.673Z,92631.63
2022-08-05T00:32:15.270Z,92632.41
2022-08-05T00:35:05.676Z,92634.34
2022-08-05T00:37:53.157Z,92636.25
2022-08-05T00:40:29.254Z,92636.56
2022-08-05T00:43:00.693Z,92644.88
2022-08-05T00:45:43.138Z,92637.63
2022-08-05T00:48:27.553Z,92638.59
2022-08-05T00:51:00.113Z,92641.66
2022-08-05T00:54:00.133Z,92646.44
2022-08-05T00:56:26.310Z,92644.81
2022-08-05T00:58:56.309Z,92642.28
2022-08-05T01:01:42.660Z,92641.03
2022-08-05T01:04:15.850Z,92642.78
2022-08-05T01:06:48.898Z,92642.88
2022-08-05T01:09:20.540Z,92657.03
2022-08-05T01:11:53.284Z,92646.63
2022-08-05T01:14:49.592Z,92640.00
2022-08-05T01:17:30.231Z,92638.19
2022-08-05T01:20:15.268Z,92641.25
2022-08-05T01:23:23.519Z,92633.72
2022-08-05T01:26:28.769Z,92643.00
2022-08-05T01:29:10.401Z,92630.97
2022-08-05T01:31:49.743Z,92633.28
2022-08-05T01:34:50.194Z,92631.41
2022-08-05T01:37:44.417Z,92633.41
2022-08-05T01:40:17.770Z,92639.94
2022-08-05T01:42:48.839Z,92627.56
2022-08-05T01:45:18.349Z,92624.78
2022-08-05T01:47:54.601Z,92627.16
2022-08-05T01:50:32.450Z,92616.78
2022-08-05T01:53:04.981Z,92619.34
2022-08-05T01:55:36.106Z,92619.19
2022-08-05T01:58:15.510Z,92617.47
2022-08-05T02:00:49.117Z,92623.56
2022-08-05T02:03:31.795Z,92632.69
2022-08-05T02:06:33.512Z,92633.53
2022-08-05T02:08:57.920Z,92635.94
2022-08-05T02:11:33.075Z,92633.31
2022-08-05T02:14:28.816Z,92638.72
2022-08-05T02:17:08.488Z,92629.00
2022-08-05T02:19:51.391Z,92629.31
2022-08-05T02:22:29.866Z,92624.84
2022-08-05T02:25:06.472Z,92632.38
2022-08-05T02:27:58.082Z,92631.03
2022-08-05T02:30:40.570Z,92638.75
2022-08-05T02:33:36.080Z,92639.16
2022-08-05T02:36:13.630Z,92645.19
2022-08-05T02:38:53.545Z,92642.50
2022-08-05T02:41:28.826Z,92651.91
2022-08-05T02:44:13.321Z,92651.22
2022-08-05T02:46:59.928Z,92649.81
2022-08-05T02:49:35.996Z,92648.91
2022-08-05T02:52:08.976Z,92647.16
2022-08-05T02:54:41.359Z,92658.50
2022-08-05T02:58:12.236Z,92663.44
2022-08-05T03:00:04.400Z,92648.06
2022-08-05T03:02:43.546Z,92669.38
2022-08-05T03:05:14.060Z,92669.25
2022-08-05T03:08:06.897Z,92669.66
2022-08-05T03:10:33.968Z,92668.50
2022-08-05T03:15:29.599Z,92666.19
2022-08-05T03:17:59.498Z,92664.44
2022-08-05T03:20:28.402Z,92682.59
2022-08-05T03:22:58.199Z,92685.91
2022-08-05T03:25:33.821Z,92692.91
2022-08-05T03:28:18.776Z,92688.50
2022-08-05T03:30:50.866Z,92690.16
2022-08-05T03:33:20.397Z,92687.59
2022-08-05T03:35:50.731Z,92686.28
2022-08-05T03:38:23.846Z,92692.00
2022-08-05T03:41:08.206Z,92697.34
2022-08-05T03:44:08.123Z,92700.09
2022-08-05T03:46:29.485Z,92697.00
2022-08-05T03:48:59.307Z,92712.50
2022-08-05T03:52:38.840Z,92716.00
2022-08-05T03:55:53.009Z,92719.50
2022-08-05T03:57:41.877Z,92725.13
2022-08-05T04:00:16.283Z,92721.94
2022-08-05T04:02:58.284Z,92711.59
2022-08-05T04:05:37.177Z,92709.16
2022-08-05T04:08:14.567Z,92707.91
2022-08-05T04:10:46.684Z,92709.28
2022-08-05T04:13:19.672Z,92712.25
2022-08-05T04:16:03.243Z,92721.31
2022-08-05T04:18:34.234Z,92722.91
2022-08-05T04:21:04.273Z,92730.41
2022-08-05T04:24:05.875Z,92725.66
2022-08-05T04:26:23.101Z,92737.13
2022-08-05T04:28:52.202Z,92736.31
2022-08-05T04:31:21.849Z,92729.44
2022-08-05T04:34:18.439Z,92736.34
2022-08-05T04:36:49.548Z,92734.03
2022-08-05T04:39:19.276Z,92732.16
2022-08-05T04:41:50.951Z,92737.16
2022-08-05T04:44:29.502Z,92730.84
2022-08-05T04:47:09.534Z,92730.09
2022-08-05T04:50:02.189Z,92744.47
2022-08-05T04:52:34.062Z,92740.25
2022-08-05T04:55:14.758Z,92742.38
2022-08-05T04:57:47.709Z,92737.88
2022-08-05T05:00:17.419Z,92739.47
2022-08-05T05:02:46.028Z,92736.03
2022-08-05T05:05:26.162Z,92732.03
2022-08-05T05:08:03.226Z,92742.44
2022-08-05T05:10:35.043Z,92728.31
2022-08-05T05:13:04.664Z,92735.50
2022-08-05T05:16:01.850Z,92743.50
2022-08-05T05:18:31.274Z,92744.00
2022-08-05T05:21:03.587Z,92742.69
2022-08-05T05:23:39.015Z,92748.28
2022-08-05T05:26:28.308Z,92747.44
2022-08-05T05:29:02.283Z,92754.34
2022-08-05T05:34:01.875Z,92744.00
2022-08-05T05:36:32.607Z,92741.06
2022-08-05T05:39:09.463Z,92753.06
2022-08-05T05:41:40.573Z,92753.06
2022-08-05T05:44:35.638Z,92751.19
2022-08-05T05:47:04.033Z,92762.63
2022-08-05T05:49:33.806Z,92756.25
2022-08-05T05:52:05.943Z,92754.66
2022-08-05T05:54:50.197Z,92763.13
2022-08-05T05:57:20.714Z,92758.84
2022-08-05T05:59:49.500Z,92766.22
2022-08-05T06:02:32.805Z,92776.31
2022-08-05T06:05:10.143Z,92766.75
2022-08-05T06:08:01.156Z,92767.00
2022-08-05T06:10:34.458Z,92776.88
2022-08-05T06:13:06.590Z,92769.94
2022-08-05T06:16:29.541Z,92778.97
2022-08-05T06:18:31.538Z,92772.53
2022-08-05T06:21:01.192Z,92787.97
2022-08-05T06:23:32.255Z,92778.66
2022-08-05T06:28:50.509Z,92787.97
2022-08-05T06:31:21.734Z,92790.13
2022-08-05T06:34:07.385Z,92786.66
2022-08-05T06:36:57.366Z,92790.66
2022-08-05T06:39:27.028Z,92802.63
2022-08-05T06:42:00.658Z,92810.09
2022-08-05T06:44:29.539Z,92812.06
2022-08-05T06:46:58.466Z,92819.03
2022-08-05T06:50:00.453Z,92805.75
2022-08-05T06:52:36.710Z,92808.97
2022-08-05T06:55:06.514Z,92822.25
2022-08-05T06:58:03.933Z,92814.53
2022-08-05T07:00:24.731Z,92813.75
2022-08-05T07:02:54.310Z,92833.94
2022-08-05T07:05:37.030Z,92834.47
2022-08-05T07:08:06.250Z,92837.31
2022-08-05T07:10:39.273Z,92843.13
2022-08-05T07:13:57.648Z,92842.03
2022-08-05T07:17:57.135Z,92845.19
2022-08-05T07:22:28.520Z,92848.09
2022-08-05T07:25:21.850Z,92846.50
2022-08-05T07:27:57.793Z,92848.06
2022-08-05T07:30:38.328Z,92859.22
2022-08-05T07:33:16.435Z,92870.59
2022-08-05T07:36:02.809Z,92872.44
2022-08-05T07:38:43.074Z,92879.31
2022-08-05T07:42:14.353Z,92873.47
2022-08-05T07:44:19.184Z,92877.97
2022-08-05T07:46:50.299Z,92886.97
2022-08-05T07:49:20.037Z,92886.41
2022-08-05T07:51:53.649Z,92898.06
2022-08-05T07:54:31.002Z,92892.50
2022-08-05T07:57:17.612Z,92900.16
2022-08-05T07:59:53.816Z,92903.84
2022-08-05T08:02:31.440Z,92903.59
2022-08-05T08:05:19.182Z,92914.44
2022-08-05T08:07:59.849Z,92908.59
2022-08-05T08:10:29.293Z,92930.88
2022-08-05T08:12:59.098Z,92931.44
2022-08-05T08:16:33.469Z,92933.78
2022-08-05T08:18:21.877Z,92943.88
2022-08-05T08:21:01.795Z,92950.50
2022-08-05T08:24:01.279Z,92943.31
2022-08-05T08:26:26.740Z,92952.56
2022-08-05T08:29:21.960Z,92965.00
2022-08-05T08:31:48.395Z,92963.13
2022-08-05T08:34:29.885Z,92972.38
2022-08-05T08:37:04.893Z,92968.13
2022-08-05T08:39:37.635Z,92978.75
2022-08-05T08:42:33.700Z,92981.91
2022-08-05T08:45:24.938Z,92997.00
2022-08-05T08:48:07.530Z,92994.06
2022-08-05T08:51:03.492Z,93013.66
2022-08-05T08:53:30.186Z,93005.66
2022-08-05T08:56:04.824Z,93015.72
2022-08-05T08:58:43.839Z,93017.56
2022-08-05T09:01:18.047Z,93027.09
2022-08-05T09:03:55.437Z,93040.59
2022-08-05T09:06:28.538Z,93044.56
2022-08-05T09:09:01.723Z,93034.75
2022-08-05T09:11:53.125Z,93051.16
2022-08-05T09:14:59.202Z,93055.66
2022-08-05T09:17:42.481Z,93065.69
2022-08-05T09:20:08.372Z,93072.06
2022-08-05T09:23:07.698Z,93076.59
2022-08-05T09:26:00.228Z,93079.25
2022-08-05T09:28:31.866Z,93086.09
2022-08-05T09:31:44.096Z,93083.69
2022-08-05T09:34:00.721Z,93091.88
2022-08-05T09:36:45.814Z,93101.13
2022-08-05T09:39:41.450Z,93099.84
2022-08-05T09:42:24.557Z,93100.09
2022-08-05T09:45:03.373Z,93094.00
2022-08-05T09:47:54.965Z,93096.38
2022-08-05T09:50:44.573Z,93106.44
2022-08-05T09:53:23.113Z,93099.03
2022-08-05T09:56:04.744Z,93112.34
2022-08-05T09:58:41.832Z,93116.84
2022-08-05T10:01:22.557Z,93130.63
2022-08-05T10:04:10.342Z,93131.69
2022-08-05T10:06:54.847Z,93127.13
2022-08-05T10:09:29.607Z,93141.16
2022-08-05T10:12:18.460Z,93144.31
2022-08-05T10:15:20.945Z,93149.84
2022-08-05T10:18:24.111Z,93152.75
2022-08-05T10:20:59.114Z,93158.78
2022-08-05T10:23:59.008Z,93164.09
2022-08-05T10:26:32.272Z,93167.53
2022-08-05T10:29:01.627Z,93161.69
2022-08-05T10:32:52.205Z,93165.38
2022-08-05T10:34:18.841Z,93170.69
2022-08-05T10:36:54.995Z,93181.28
2022-08-05T10:39:59.236Z,93183.38
2022-08-05T10:42:33.545Z,93183.31
2022-08-05T10:45:21.135Z,93187.06
2022-08-05T10:48:30.327Z,93191.31
2022-08-05T10:51:22.062Z,93203.50
2022-08-05T10:54:23.172Z,93205.91
2022-08-05T10:56:53.558Z,93212.00
2022-08-05T11:00:02.726Z,93213.59
2022-08-05T11:02:38.451Z,93215.75
2022-08-05T11:05:11.696Z,93213.66
2022-08-05T11:08:21.679Z,93213.91
2022-08-05T11:11:01.068Z,93219.78
2022-08-05T11:13:54.789Z,93220.56
2022-08-05T11:16:34.031Z,93228.28
2022-08-05T11:20:11.339Z,93231.72
2022-08-05T11:22:44.462Z,93242.31
2022-08-05T11:26:05.371Z,93234.38
2022-08-05T11:28:28.434Z,93244.97
2022-08-05T11:31:00.165Z,93243.91
2022-08-05T11:33:56.555Z,93253.47
2022-08-05T11:36:53.241Z,93253.22
2022-08-05T11:40:00.741Z,93252.41
2022-08-05T11:42:37.762Z,93258.03
2022-08-05T11:45:23.548Z,93263.63
2022-08-05T11:47:59.976Z,93267.09
2022-08-05T11:50:29.694Z,93267.03
2022-08-05T11:52:58.531Z,93268.13
2022-08-05T11:55:31.978Z,93255.63
2022-08-05T11:58:10.480Z,93264.63
2022-08-05T12:00:44.388Z,93264.63
2022-08-05T12:03:29.086Z,93267.28
2022-08-05T12:06:10.092Z,93261.41
2022-08-05T12:08:53.990Z,93268.63
2022-08-05T12:11:40.244Z,93269.69
2022-08-05T12:14:11.016Z,93272.81
2022-08-05T12:16:45.649Z,93269.91
2022-08-05T12:20:16.671Z,93277.88
2022-08-05T12:22:09.481Z,93280.03
2022-08-05T12:24:43.627Z,93283.28
2022-08-05T12:27:26.741Z,93279.84
2022-08-05T12:30:03.987Z,93288.34
2022-08-05T12:32:39.719Z,93293.97
2022-08-05T12:35:09.697Z,93298.69
2022-08-05T12:37:38.927Z,93302.97
2022-08-05T12:40:20.646Z,93308.31
2022-08-05T12:42:55.702Z,93310.22
2022-08-05T12:45:42.555Z,93307.84
2022-08-05T12:48:26.989Z,93324.53
2022-08-05T12:51:21.896Z,93318.75
2022-08-05T12:54:16.969Z,93316.09
2022-08-05T12:56:57.888Z,93325.47
2022-08-05T13:00:08.315Z,93324.34
2022-08-05T13:02:27.252Z,93325.41
2022-08-05T13:04:59.068Z,93325.16
2022-08-05T13:07:57.367Z,93326.50
2022-08-05T13:10:19.951Z,93338.78
2022-08-05T13:12:51.014Z,93355.50
2022-08-05T13:15:41.541Z,93354.19
2022-08-05T13:18:20.682Z,93360.59
2022-08-05T13:20:50.455Z,93368.88
2022-08-05T13:23:22.577Z,93361.09
2022-08-05T13:25:58.958Z,93364.31
2022-08-05T13:28:32.160Z,93376.50
2022-08-05T13:31:11.185Z,93376.81
2022-08-05T13:34:21.627Z,93379.47
2022-08-05T13:36:32.390Z,93395.69
2022-08-05T13:39:01.027Z,93399.63
2022-08-05T13:41:38.339Z,93398.03
2022-08-05T13:44:10.108Z,93409.44
2022-08-05T13:47:01.820Z,93406.53
2022-08-05T13:49:27.089Z,93417.41
2022-08-05T13:51:59.820Z,93417.16
2022-08-05T13:54:28.604Z,93414.50
2022-08-05T13:57:00.013Z,93416.91
2022-08-05T13:59:30.745Z,93427.03
2022-08-05T14:02:00.877Z,93419.56
2022-08-05T14:04:55.687Z,93430.47
2022-08-05T14:07:59.516Z,93433.56
2022-08-05T14:10:34.732Z,93441.59
2022-08-05T14:13:04.308Z,93439.50
2022-08-05T14:16:08.566Z,93439.25
2022-08-05T14:18:23.896Z,93449.63
2022-08-05T14:20:55.086Z,93447.22
2022-08-05T14:23:26.275Z,93448.56
2022-08-05T14:25:58.833Z,93460.53
2022-08-05T14:28:32.085Z,93465.06
2022-08-05T14:31:01.837Z,93473.56
2022-08-05T14:33:56.487Z,93475.72
2022-08-05T14:36:21.597Z,93478.06
2022-08-05T14:38:51.063Z,93491.09
2022-08-05T14:41:20.046Z,93487.38
2022-08-05T14:43:59.480Z,93483.69
2022-08-05T14:46:35.438Z,93486.34
2022-08-05T14:49:07.272Z,93498.06
2022-08-05T14:51:38.378Z,93508.69
2022-08-05T14:54:30.140Z,93514.28
2022-08-05T14:56:56.879Z,93523.06
2022-08-05T14:59:25.532Z,93527.31
2022-08-05T15:01:59.987Z,93523.13
2022-08-05T15:04:29.421Z,93531.09
2022-08-05T15:06:58.166Z,93531.03
2022-08-05T15:09:52.367Z,93542.75
2022-08-05T15:12:16.957Z,93538.81
2022-08-05T15:14:50.043Z,93548.50
2022-08-05T15:17:46.221Z,93548.28
2022-08-05T15:20:18.665Z,93556.25
2022-08-05T15:22:54.045Z,93551.50
2022-08-05T15:25:52.812Z,93564.78
2022-08-05T15:28:16.159Z,93572.75
2022-08-05T15:30:46.651Z,93579.72
2022-08-05T15:33:56.656Z,93576.03
2022-08-05T15:36:17.617Z,93582.38
2022-08-05T15:40:42.658Z,93591.06
2022-08-05T15:41:55.410Z,93596.44
2022-08-05T15:44:25.561Z,93605.34
2022-08-05T15:46:56.344Z,93597.75
2022-08-05T15:49:53.781Z,93611.50
2022-08-05T15:52:16.589Z,93607.84
2022-08-05T15:54:58.340Z,93616.16
2022-08-05T15:57:32.967Z,93612.16
2022-08-05T16:00:02.287Z,93616.97
2022-08-05T16:02:31.193Z,93620.69
2022-08-05T16:04:59.747Z,93621.50
2022-08-05T16:07:29.442Z,93623.25
2022-08-05T16:09:58.561Z,93629.19
2022-08-05T16:12:27.222Z,93625.84
2022-08-05T16:14:56.019Z,93629.13
2022-08-05T16:17:25.503Z,93637.03
2022-08-05T16:20:04.716Z,93642.13
2022-08-05T16:22:40.112Z,93638.50
2022-08-05T16:25:11.380Z,93646.81
2022-08-05T16:27:59.848Z,93637.41
2022-08-05T16:30:29.960Z,93652.44
2022-08-05T16:33:01.925Z,93653.28
2022-08-05T16:35:33.723Z,93657.50
2022-08-05T16:38:18.713Z,93673.53
2022-08-05T16:41:00.299Z,93654.31
2022-08-05T16:43:35.111Z,93670.38
2022-08-05T16:46:24.174Z,93680.41
2022-08-05T16:48:53.633Z,93693.19
2022-08-05T16:51:24.611Z,93687.63
2022-08-05T16:54:05.179Z,93692.38
2022-08-05T16:56:43.972Z,93700.28
2022-08-05T16:59:14.610Z,93703.41
2022-08-05T17:01:54.391Z,93699.47
2022-08-05T17:04:27.139Z,93709.41
2022-08-05T17:07:00.175Z,93709.75
2022-08-05T17:09:30.568Z,93724.69
2022-08-05T17:12:07.792Z,93714.63
2022-08-05T17:14:40.482Z,93714.72
2022-08-05T17:17:14.920Z,93718.41
2022-08-05T17:19:46.495Z,93724.06
2022-08-05T17:22:25.619Z,93728.94
2022-08-05T17:24:57.957Z,93730.19
2022-08-05T17:27:33.575Z,93739.31
2022-08-05T17:30:11.822Z,93734.38
2022-08-05T17:32:47.282Z,93737.34
2022-08-05T17:35:20.717Z,93732.22
2022-08-05T17:37:49.602Z,93741.56
2022-08-05T17:40:22.693Z,93742.66
2022-08-05T17:42:53.014Z,93744.34
2022-08-05T17:45:29.713Z,93751.38
2022-08-05T17:48:09.039Z,93762.59
2022-08-05T17:50:40.006Z,93764.78
2022-08-05T17:53:09.999Z,93769.34
2022-08-05T17:55:39.922Z,93768.25
2022-08-05T17:58:16.435Z,93770.91
2022-08-05T18:00:50.598Z,93766.63
2022-08-05T18:06:11.275Z,93778.41
2022-08-05T18:08:44.412Z,93785.84
2022-08-05T18:11:24.312Z,93790.69
2022-08-05T18:14:06.793Z,93791.03
2022-08-05T18:16:49.609Z,93796.63
2022-08-05T18:19:22.994Z,93798.59
2022-08-05T18:22:09.470Z,93795.44
2022-08-05T18:24:40.811Z,93809.13
2022-08-05T18:27:18.094Z,93811.53
2022-08-05T18:29:53.618Z,93816.63
2022-08-05T18:32:27.603Z,93819.81
2022-08-05T18:34:57.488Z,93822.50
2022-08-05T18:37:33.435Z,93827.84
2022-08-05T18:40:34.030Z,93834.00
2022-08-05T18:42:52.260Z,93840.41
2022-08-05T18:45:21.257Z,93832.91
2022-08-05T18:47:56.295Z,93837.72
2022-08-05T18:50:46.511Z,93843.06
2022-08-05T18:53:20.626Z,93844.69
2022-08-05T18:55:53.255Z,93846.31
2022-08-05T18:58:27.280Z,93848.19
2022-08-05T19:00:58.258Z,93847.13
2022-08-05T19:03:52.750Z,93848.94
2022-08-05T19:06:22.356Z,93861.28
2022-08-05T19:09:02.390Z,93855.13
2022-08-05T19:11:56.710Z,93860.72
2022-08-05T19:14:44.512Z,93865.31
2022-08-05T19:17:13.014Z,93863.97
2022-08-05T19:19:44.160Z,93863.44
2022-08-05T19:22:22.693Z,93862.63
2022-08-05T19:25:02.659Z,93865.84
2022-08-05T19:27:31.473Z,93858.31
2022-08-05T19:30:00.418Z,93866.09
2022-08-05T19:32:32.208Z,93864.50
2022-08-05T19:35:05.632Z,93873.91
2022-08-05T19:38:04.636Z,93868.91
2022-08-05T19:40:25.077Z,93868.50
2022-08-05T19:43:00.692Z,93879.75
2022-08-05T19:45:33.158Z,93906.44
2022-08-05T19:48:06.050Z,93884.75
2022-08-05T19:50:34.791Z,93881.09
2022-08-05T19:53:09.438Z,93896.84
2022-08-05T19:56:12.430Z,93889.09
2022-08-05T19:58:30.099Z,93899.28
2022-08-05T20:00:59.379Z,93892.31
2022-08-05T20:03:40.512Z,93895.00
2022-08-05T20:06:15.699Z,93890.44
2022-08-05T20:08:59.855Z,93890.44
2022-08-05T20:11:37.727Z,93900.34
2022-08-05T20:14:12.508Z,93900.09
2022-08-05T20:16:43.483Z,93895.78
2022-08-05T20:19:12.168Z,93905.16
2022-08-05T20:21:43.347Z,93906.78
2022-08-05T20:24:13.401Z,93898.78
2022-08-05T20:26:44.743Z,93895.00
2022-08-05T20:29:27.597Z,93904.91
2022-08-05T20:31:58.339Z,93907.88
2022-08-05T20:34:28.802Z,93913.13
2022-08-05T20:36:57.612Z,93910.38
2022-08-05T20:39:26.356Z,93911.88
2022-08-05T20:42:06.748Z,93915.09
2022-08-05T20:44:39.600Z,93922.28
2022-08-05T20:47:09.163Z,93914.09
2022-08-05T20:49:39.879Z,93921.69
2022-08-05T20:52:10.639Z,93926.41
2022-08-05T20:54:55.131Z,93924.13
2022-08-05T20:57:43.942Z,93929.16
2022-08-05T21:00:40.221Z,93941.91
2022-08-05T21:03:07.581Z,93942.09
2022-08-05T21:05:53.784Z,93940.63
2022-08-05T21:08:41.919Z,93952.50
2022-08-05T21:12:09.588Z,93948.06
2022-08-05T21:14:05.390Z,93948.19
2022-08-05T21:16:34.907Z,93944.59
2022-08-05T21:19:03.945Z,93953.13
2022-08-05T21:21:43.920Z,93953.72
2022-08-05T21:24:19.404Z,93968.19
2022-08-05T21:26:58.342Z,93954.94
2022-08-05T21:29:32.108Z,93962.16
2022-08-05T21:32:02.863Z,93958.06
2022-08-05T21:34:32.932Z,93960.50
2022-08-05T21:37:05.803Z,93952.28
2022-08-05T21:39:40.482Z,93955.22
2022-08-05T21:42:30.729Z,93972.44
2022-08-05T21:44:59.828Z,93972.03
2022-08-05T21:47:55.715Z,93968.78
2022-08-05T21:50:18.310Z,93964.41
2022-08-05T21:52:47.303Z,93961.84
2022-08-05T21:55:16.007Z,93959.13
2022-08-05T21:57:44.657Z,93970.31
2022-08-05T22:00:15.787Z,93961.25
2022-08-05T22:02:44.753Z,93971.13
2022-08-05T22:05:14.518Z,93955.31
2022-08-05T22:07:59.161Z,93971.00
2022-08-05T22:10:31.153Z,93967.63
2022-08-05T22:14:05.100Z,93970.63
2022-08-05T22:16:00.814Z,93968.63
2022-08-05T22:18:36.863Z,93961.38
2022-08-05T22:21:17.885Z,93965.06
2022-08-05T22:24:12.751Z,93971.75
2022-08-05T22:27:00.368Z,93965.16
2022-08-05T22:29:35.079Z,93962.69
2022-08-05T22:32:03.750Z,93967.19
2022-08-05T22:34:33.780Z,93958.91
2022-08-05T22:37:03.670Z,93962.50
2022-08-05T22:39:34.145Z,93963.47
2022-08-05T22:42:11.260Z,93961.56
2022-08-05T22:44:48.395Z,93966.28
2022-08-05T22:47:29.634Z,93965.75
2022-08-05T22:50:20.747Z,93971.53
2022-08-05T22:52:51.534Z,93968.03
2022-08-05T22:55:21.962Z,93967.84
2022-08-05T22:57:52.837Z,93966.97
2022-08-05T23:00:23.357Z,93967.75
2022-08-05T23:02:54.722Z,93973.72
2022-08-05T23:05:23.988Z,93981.38
2022-08-05T23:07:53.524Z,93976.75
2022-08-05T23:10:23.820Z,93977.59
2022-08-05T23:12:55.428Z,93980.41
2022-08-05T23:15:29.494Z,93967.22
2022-08-05T23:18:03.181Z,93961.94
2022-08-05T23:20:37.291Z,93967.22
2022-08-05T23:23:08.947Z,93961.19
2022-08-05T23:25:52.816Z,93982.25
2022-08-05T23:28:28.551Z,93971.66
2022-08-05T23:31:03.707Z,93965.16
2022-08-05T23:34:04.732Z,93970.03
2022-08-05T23:36:40.324Z,93965.41
2022-08-05T23:39:32.275Z,93970.44
2022-08-05T23:42:08.628Z,93969.06
2022-08-05T23:44:42.985Z,93970.13
2022-08-05T23:47:14.513Z,93966.75
2022-08-05T23:49:46.646Z,93968.88
2022-08-05T23:52:36.160Z,93972.41
2022-08-05T23:55:18.223Z,93973.78
2022-08-05T23:57:51.250Z,93977.06
